createdAt,value
2022-09-28T00:00:01.199Z,2.40
2022-09-28T00:00:17.876Z,2.33
2022-09-28T00:00:34.372Z,2.38
2022-09-28T00:00:51.887Z,2.60
2022-09-28T00:01:09.164Z,2.78
2022-09-28T00:01:26.126Z,2.35
2022-09-28T00:01:42.736Z,2.67
2022-09-28T00:01:59.369Z,2.90
2022-09-28T00:02:16.188Z,3.10
2022-09-28T00:02:34.802Z,3.36
2022-09-28T00:02:52.283Z,3.08
2022-09-28T00:03:09.212Z,2.90
2022-09-28T00:03:25.757Z,3.08
2022-09-28T00:03:42.262Z,3.15
2022-09-28T00:03:59.002Z,2.60
2022-09-28T00:04:16.457Z,2.40
2022-09-28T00:04:33.407Z,2.45
2022-09-28T00:04:49.903Z,2.80
2022-09-28T00:05:06.801Z,3.00
2022-09-28T00:05:23.487Z,2.90
2022-09-28T00:05:41.033Z,2.90
2022-09-28T00:06:00.752Z,2.63
2022-09-28T00:06:18.538Z,2.97
2022-09-28T00:06:35.043Z,2.80
2022-09-28T00:06:51.556Z,2.45
2022-09-28T00:07:09.315Z,2.65
2022-09-28T00:07:25.917Z,2.63
2022-09-28T00:07:42.582Z,2.90
2022-09-28T00:07:59.081Z,2.88
2022-09-28T00:08:15.617Z,2.78
2022-09-28T00:08:33.107Z,2.67
2022-09-28T00:08:50.080Z,3.20
2022-09-28T00:09:06.621Z,2.88
2022-09-28T00:09:23.123Z,2.95
2022-09-28T00:09:39.602Z,2.70
2022-09-28T00:09:57.098Z,2.58
2022-09-28T00:10:13.579Z,2.70
2022-09-28T00:10:30.131Z,2.60
2022-09-28T00:10:55.970Z,2.80
2022-09-28T00:11:13.697Z,3.30
2022-09-28T00:11:31.239Z,2.90
2022-09-28T00:11:47.721Z,2.75
2022-09-28T00:12:04.426Z,2.97
2022-09-28T00:12:22.301Z,2.88
2022-09-28T00:12:39.437Z,2.35
2022-09-28T00:12:56.891Z,2.67
2022-09-28T00:13:13.388Z,2.88
2022-09-28T00:13:30.970Z,3.10
2022-09-28T00:13:49.045Z,2.72
2022-09-28T00:14:07.530Z,2.33
2022-09-28T00:14:24.498Z,2.40
2022-09-28T00:14:42.553Z,2.92
2022-09-28T00:14:59.043Z,3.10
2022-09-28T00:15:16.638Z,2.97
2022-09-28T00:15:33.269Z,3.40
2022-09-28T00:15:58.331Z,3.05
2022-09-28T00:16:16.694Z,2.25
2022-09-28T00:16:34.953Z,2.03
2022-09-28T00:16:52.556Z,2.35
2022-09-28T00:17:09.096Z,2.58
2022-09-28T00:17:26.449Z,2.58
2022-09-28T00:17:44.647Z,2.67
2022-09-28T00:18:01.292Z,2.80
2022-09-28T00:18:17.807Z,2.75
2022-09-28T00:18:36.032Z,2.65
2022-09-28T00:18:53.080Z,3.08
2022-09-28T00:19:10.577Z,2.92
2022-09-28T00:19:27.182Z,2.67
2022-09-28T00:19:45.083Z,2.44
2022-09-28T00:20:05.510Z,2.78
2022-09-28T00:20:22.716Z,3.03
2022-09-28T00:20:39.221Z,2.80
2022-09-28T00:21:02.619Z,2.90
2022-09-28T00:21:19.723Z,2.80
2022-09-28T00:21:38.066Z,2.55
2022-09-28T00:21:54.527Z,2.95
2022-09-28T00:22:11.033Z,2.95
2022-09-28T00:22:28.212Z,2.83
2022-09-28T00:22:44.693Z,2.80
2022-09-28T00:23:01.192Z,2.65
2022-09-28T00:23:17.669Z,2.65
2022-09-28T00:23:55.925Z,2.47
2022-09-28T00:24:17.765Z,2.22
2022-09-28T00:24:34.247Z,2.55
2022-09-28T00:24:50.722Z,2.83
2022-09-28T00:25:08.697Z,3.58
2022-09-28T00:25:25.277Z,3.28
2022-09-28T00:25:41.763Z,2.90
2022-09-28T00:26:02.967Z,2.85
2022-09-28T00:26:19.453Z,2.85
2022-09-28T00:26:36.310Z,2.50
2022-09-28T00:26:54.797Z,2.60
2022-09-28T00:27:11.298Z,2.70
2022-09-28T00:27:27.785Z,2.78
2022-09-28T00:27:49.388Z,2.42
2022-09-28T00:28:06.391Z,2.40
2022-09-28T00:28:22.940Z,2.45
2022-09-28T00:28:40.447Z,2.88
2022-09-28T00:28:58.447Z,3.10
2022-09-28T00:29:22.734Z,2.72
2022-09-28T00:29:39.221Z,2.85
2022-09-28T00:29:56.993Z,3.05
2022-09-28T00:30:16.337Z,3.08
2022-09-28T00:30:34.645Z,2.92
2022-09-28T00:30:54.832Z,2.50
2022-09-28T00:31:11.366Z,2.85
2022-09-28T00:31:30.163Z,2.80
2022-09-28T00:31:48.183Z,2.30
2022-09-28T00:32:05.858Z,2.72
2022-09-28T00:32:24.600Z,3.00
2022-09-28T00:32:41.177Z,2.70
2022-09-28T00:33:00.278Z,2.80
2022-09-28T00:33:16.779Z,3.08
2022-09-28T00:33:33.251Z,2.88
2022-09-28T00:33:50.090Z,2.90
2022-09-28T00:34:06.599Z,3.20
2022-09-28T00:34:25.318Z,3.50
2022-09-28T00:34:45.698Z,2.80
2022-09-28T00:35:02.223Z,2.50
2022-09-28T00:35:18.758Z,2.28
2022-09-28T00:35:35.227Z,2.53
2022-09-28T00:35:56.029Z,3.17
2022-09-28T00:36:12.503Z,3.30
2022-09-28T00:36:29.627Z,3.03
2022-09-28T00:36:46.686Z,2.78
2022-09-28T00:37:04.211Z,2.85
2022-09-28T00:37:21.690Z,2.47
2022-09-28T00:37:38.178Z,2.68
2022-09-28T00:37:54.667Z,2.80
2022-09-28T00:38:11.193Z,2.47
2022-09-28T00:38:28.377Z,2.55
2022-09-28T00:38:44.950Z,3.00
2022-09-28T00:39:03.986Z,3.20
2022-09-28T00:39:21.455Z,3.40
2022-09-28T00:39:38.437Z,3.47
2022-09-28T00:39:55.380Z,3.53
2022-09-28T00:40:11.966Z,3.13
2022-09-28T00:40:28.474Z,3.20
2022-09-28T00:40:45.067Z,2.97
2022-09-28T00:41:05.383Z,2.70
2022-09-28T00:41:22.006Z,2.75
2022-09-28T00:41:38.579Z,2.83
2022-09-28T00:41:55.069Z,2.83
2022-09-28T00:42:13.508Z,2.83
2022-09-28T00:42:31.008Z,3.28
2022-09-28T00:42:47.489Z,3.20
2022-09-28T00:43:16.876Z,3.22
2022-09-28T00:43:33.451Z,3.35
2022-09-28T00:43:51.092Z,2.63
2022-09-28T00:44:26.290Z,2.75
2022-09-28T00:44:45.283Z,3.30
2022-09-28T00:45:01.797Z,2.72
2022-09-28T00:45:18.401Z,2.45
2022-09-28T00:45:34.953Z,2.50
2022-09-28T00:45:55.227Z,2.70
2022-09-28T00:46:15.021Z,2.92
2022-09-28T00:46:32.859Z,2.47
2022-09-28T00:46:49.731Z,2.25
2022-09-28T00:47:19.766Z,2.63
2022-09-28T00:47:40.887Z,2.45
2022-09-28T00:47:58.785Z,2.83
2022-09-28T00:48:15.292Z,2.97
2022-09-28T00:48:34.051Z,2.80
2022-09-28T00:48:52.974Z,2.63
2022-09-28T00:49:12.232Z,2.70
2022-09-28T00:49:31.192Z,3.10
2022-09-28T00:49:51.438Z,2.85
2022-09-28T00:50:11.287Z,3.00
2022-09-28T00:50:29.206Z,2.95
2022-09-28T00:50:47.118Z,2.80
2022-09-28T00:51:05.696Z,2.72
2022-09-28T00:51:23.650Z,2.75
2022-09-28T00:51:41.947Z,3.00
2022-09-28T00:51:58.503Z,3.42
2022-09-28T00:52:17.920Z,3.03
2022-09-28T00:52:37.475Z,2.62
2022-09-28T00:52:55.434Z,2.78
2022-09-28T00:53:14.526Z,3.10
2022-09-28T00:53:32.442Z,3.20
2022-09-28T00:53:49.343Z,3.42
2022-09-28T00:54:08.331Z,3.10
2022-09-28T00:54:24.893Z,3.25
2022-09-28T00:54:42.469Z,3.13
2022-09-28T00:55:01.136Z,2.95
2022-09-28T00:55:21.032Z,2.92
2022-09-28T00:55:39.583Z,2.70
2022-09-28T00:55:58.388Z,2.85
2022-09-28T00:56:19.066Z,3.10
2022-09-28T00:56:36.540Z,3.13
2022-09-28T00:56:53.041Z,3.04
2022-09-28T00:57:09.611Z,3.17
2022-09-28T00:57:26.201Z,3.45
2022-09-28T00:57:45.146Z,3.80
2022-09-28T00:58:03.699Z,3.50
2022-09-28T00:58:21.848Z,3.63
2022-09-28T00:58:39.976Z,3.25
2022-09-28T00:58:57.246Z,3.25
2022-09-28T00:59:14.378Z,3.22
2022-09-28T00:59:32.449Z,3.33
2022-09-28T00:59:49.584Z,3.15
2022-09-28T01:00:06.787Z,3.92
2022-09-28T01:00:23.838Z,4.32
2022-09-28T01:00:41.977Z,3.28
2022-09-28T01:00:59.628Z,3.33
2022-09-28T01:01:16.423Z,3.42
2022-09-28T01:01:33.015Z,3.22
2022-09-28T01:01:50.045Z,3.63
2022-09-28T01:02:07.218Z,3.28
2022-09-28T01:02:24.986Z,3.08
2022-09-28T01:02:42.242Z,3.28
2022-09-28T01:02:59.572Z,3.60
2022-09-28T01:03:16.378Z,3.47
2022-09-28T01:03:33.665Z,2.96
2022-09-28T01:03:51.339Z,3.05
2022-09-28T01:04:07.871Z,3.30
2022-09-28T01:04:29.215Z,3.17
2022-09-28T01:04:47.300Z,3.33
2022-09-28T01:05:05.276Z,3.38
2022-09-28T01:05:24.176Z,3.35
2022-09-28T01:05:40.682Z,3.20
2022-09-28T01:05:58.417Z,3.38
2022-09-28T01:06:17.993Z,3.60
2022-09-28T01:06:35.964Z,3.78
2022-09-28T01:06:52.628Z,3.88
2022-09-28T01:07:10.856Z,4.07
2022-09-28T01:07:27.680Z,3.97
2022-09-28T01:07:45.596Z,3.72
2022-09-28T01:08:02.287Z,4.07
2022-09-28T01:08:21.049Z,4.32
2022-09-28T01:08:39.121Z,3.92
2022-09-28T01:08:58.200Z,4.03
2022-09-28T01:09:15.214Z,4.10
2022-09-28T01:09:32.474Z,3.40
2022-09-28T01:09:49.849Z,3.60
2022-09-28T01:10:07.397Z,3.28
2022-09-28T01:10:25.171Z,3.05
2022-09-28T01:10:43.714Z,3.50
2022-09-28T01:11:00.469Z,3.65
2022-09-28T01:11:19.475Z,3.65
2022-09-28T01:11:37.710Z,3.78
2022-09-28T01:11:55.155Z,3.50
2022-09-28T01:12:12.974Z,3.60
2022-09-28T01:12:29.536Z,3.60
2022-09-28T01:12:46.087Z,3.25
2022-09-28T01:13:02.775Z,3.63
2022-09-28T01:13:20.674Z,3.55
2022-09-28T01:13:37.698Z,3.30
2022-09-28T01:13:56.625Z,3.33
2022-09-28T01:14:15.184Z,3.45
2022-09-28T01:14:31.726Z,3.38
2022-09-28T01:14:49.276Z,3.38
2022-09-28T01:15:07.141Z,3.33
2022-09-28T01:15:25.523Z,3.28
2022-09-28T01:15:46.044Z,3.60
2022-09-28T01:16:08.116Z,3.58
2022-09-28T01:16:30.781Z,3.78
2022-09-28T01:16:58.802Z,3.63
2022-09-28T01:17:26.588Z,3.45
2022-09-28T01:17:53.445Z,3.22
2022-09-28T01:18:15.301Z,3.25
2022-09-28T01:18:37.049Z,3.30
2022-09-28T01:18:57.838Z,3.10
2022-09-28T01:19:24.438Z,3.35
2022-09-28T01:19:56.994Z,3.33
2022-09-28T01:20:44.443Z,3.65
2022-09-28T01:21:02.973Z,3.22
2022-09-28T01:21:20.585Z,3.40
2022-09-28T01:21:44.399Z,3.22
2022-09-28T01:22:11.084Z,3.00
2022-09-28T01:22:31.631Z,3.25
2022-09-28T01:23:06.413Z,3.20
2022-09-28T01:23:44.034Z,3.20
2022-09-28T01:24:09.634Z,3.33
2022-09-28T01:24:39.674Z,3.10
2022-09-28T01:25:00.182Z,3.33
2022-09-28T01:25:23.644Z,3.63
2022-09-28T01:25:41.424Z,3.47
2022-09-28T01:26:02.533Z,3.28
2022-09-28T01:26:35.925Z,3.30
2022-09-28T01:26:58.936Z,3.17
2022-09-28T01:27:18.025Z,3.42
2022-09-28T01:27:37.477Z,3.53
2022-09-28T01:27:55.981Z,3.60
2022-09-28T01:28:13.677Z,3.60
2022-09-28T01:28:30.707Z,3.22
2022-09-28T01:28:48.738Z,2.97
2022-09-28T01:29:08.800Z,3.20
2022-09-28T01:29:38.935Z,3.00
2022-09-28T01:30:01.277Z,3.40
2022-09-28T01:30:18.972Z,3.35
2022-09-28T01:30:38.202Z,4.55
2022-09-28T01:31:03.199Z,4.65
2022-09-28T01:31:21.584Z,4.35
2022-09-28T01:31:40.887Z,3.88
2022-09-28T01:32:01.792Z,3.92
2022-09-28T01:32:25.786Z,3.95
2022-09-28T01:32:47.871Z,3.47
2022-09-28T01:33:06.765Z,3.45
2022-09-28T01:33:24.665Z,3.58
2022-09-28T01:33:44.809Z,3.20
2022-09-28T01:34:04.274Z,3.36
2022-09-28T01:34:23.913Z,3.38
2022-09-28T01:34:43.809Z,3.42
2022-09-28T01:35:06.527Z,3.53
2022-09-28T01:35:26.625Z,3.60
2022-09-28T01:35:47.669Z,3.47
2022-09-28T01:36:06.706Z,3.70
2022-09-28T01:36:25.381Z,3.40
2022-09-28T01:36:43.733Z,3.05
2022-09-28T01:37:03.715Z,3.13
2022-09-28T01:37:21.520Z,3.30
2022-09-28T01:37:42.254Z,3.42
2022-09-28T01:38:01.534Z,3.75
2022-09-28T01:38:22.194Z,3.75
2022-09-28T01:38:41.640Z,3.83
2022-09-28T01:39:01.695Z,3.72
2022-09-28T01:39:20.927Z,3.70
2022-09-28T01:39:41.100Z,3.45
2022-09-28T01:39:58.489Z,3.63
2022-09-28T01:40:15.901Z,3.70
2022-09-28T01:40:32.684Z,3.60
2022-09-28T01:40:51.062Z,3.28
2022-09-28T01:41:10.109Z,3.28
2022-09-28T01:41:28.724Z,3.35
2022-09-28T01:41:49.289Z,3.50
2022-09-28T01:42:08.283Z,3.75
2022-09-28T01:42:26.627Z,3.90
2022-09-28T01:42:45.835Z,3.78
2022-09-28T01:43:04.162Z,3.72
2022-09-28T01:43:22.428Z,3.67
2022-09-28T01:43:40.359Z,4.13
2022-09-28T01:43:57.514Z,3.10
2022-09-28T01:44:15.939Z,3.45
2022-09-28T01:44:39.645Z,3.95
2022-09-28T01:45:00.743Z,3.78
2022-09-28T01:45:20.296Z,3.80
2022-09-28T01:45:40.576Z,3.90
2022-09-28T01:46:02.924Z,3.45
2022-09-28T01:46:21.697Z,3.42
2022-09-28T01:46:41.257Z,3.20
2022-09-28T01:47:03.478Z,3.63
2022-09-28T01:47:21.130Z,4.45
2022-09-28T01:47:40.265Z,3.80
2022-09-28T01:48:02.075Z,3.55
2022-09-28T01:48:21.405Z,3.38
2022-09-28T01:48:39.817Z,3.55
2022-09-28T01:48:57.418Z,3.63
2022-09-28T01:49:17.129Z,3.35
2022-09-28T01:49:36.882Z,3.17
2022-09-28T01:49:58.445Z,3.65
2022-09-28T01:50:16.776Z,3.97
2022-09-28T01:50:35.216Z,4.00
2022-09-28T01:50:56.079Z,3.83
2022-09-28T01:51:16.145Z,3.08
2022-09-28T01:51:36.438Z,3.42
2022-09-28T01:51:55.730Z,4.15
2022-09-28T01:52:16.045Z,4.22
2022-09-28T01:52:36.257Z,3.63
2022-09-28T01:52:54.829Z,3.30
2022-09-28T01:53:13.701Z,3.20
2022-09-28T01:53:33.456Z,3.15
2022-09-28T01:53:54.047Z,3.17
2022-09-28T01:54:18.726Z,3.17
2022-09-28T01:54:41.412Z,3.10
2022-09-28T01:55:00.245Z,3.20
2022-09-28T01:55:19.377Z,3.72
2022-09-28T01:55:38.754Z,4.03
2022-09-28T01:55:59.954Z,3.75
2022-09-28T01:56:19.861Z,3.20
2022-09-28T01:56:39.150Z,3.20
2022-09-28T01:56:58.816Z,3.60
2022-09-28T01:57:17.689Z,3.00
2022-09-28T01:57:37.853Z,2.65
2022-09-28T01:57:56.509Z,3.30
2022-09-28T01:58:15.484Z,3.28
2022-09-28T01:58:34.290Z,3.50
2022-09-28T01:58:53.180Z,3.30
2022-09-28T01:59:13.518Z,2.97
2022-09-28T01:59:32.755Z,3.45
2022-09-28T01:59:53.594Z,3.40
2022-09-28T02:00:38.965Z,3.20
2022-09-28T02:00:59.442Z,3.53
2022-09-28T02:01:18.515Z,3.30
2022-09-28T02:01:37.907Z,3.17
2022-09-28T02:01:58.643Z,3.08
2022-09-28T02:02:18.599Z,3.60
2022-09-28T02:02:38.284Z,3.65
2022-09-28T02:02:57.309Z,3.85
2022-09-28T02:03:25.303Z,3.85
2022-09-28T02:03:54.364Z,4.00
2022-09-28T02:04:12.965Z,4.28
2022-09-28T02:04:34.966Z,4.88
2022-09-28T02:04:54.023Z,4.18
2022-09-28T02:05:12.975Z,3.63
2022-09-28T02:05:32.039Z,4.15
2022-09-28T02:05:50.548Z,4.43
2022-09-28T02:06:09.232Z,4.00
2022-09-28T02:06:27.910Z,4.85
2022-09-28T02:06:46.916Z,4.25
2022-09-28T02:07:07.543Z,3.90
2022-09-28T02:07:26.360Z,4.30
2022-09-28T02:07:45.248Z,5.03
2022-09-28T02:08:03.551Z,5.38
2022-09-28T02:08:21.326Z,4.93
2022-09-28T02:08:44.320Z,4.75
2022-09-28T02:09:04.729Z,4.30
2022-09-28T02:09:33.878Z,4.50
2022-09-28T02:09:55.161Z,4.30
2022-09-28T02:10:13.664Z,4.32
2022-09-28T02:10:33.511Z,4.38
2022-09-28T02:10:52.442Z,4.25
2022-09-28T02:11:11.166Z,4.65
2022-09-28T02:11:28.490Z,3.72
2022-09-28T02:11:47.512Z,4.05
2022-09-28T02:12:12.494Z,3.85
2022-09-28T02:12:33.600Z,3.67
2022-09-28T02:12:51.383Z,3.38
2022-09-28T02:13:11.165Z,3.30
2022-09-28T02:13:30.397Z,3.10
2022-09-28T02:13:50.084Z,3.47
2022-09-28T02:14:08.269Z,3.45
2022-09-28T02:14:25.408Z,3.80
2022-09-28T02:14:43.959Z,4.18
2022-09-28T02:15:06.487Z,4.05
2022-09-28T02:15:27.765Z,3.60
2022-09-28T02:15:47.001Z,3.53
2022-09-28T02:16:05.614Z,3.97
2022-09-28T02:16:25.577Z,3.90
2022-09-28T02:16:43.279Z,3.35
2022-09-28T02:17:01.979Z,3.00
2022-09-28T02:17:20.971Z,3.47
2022-09-28T02:17:38.246Z,3.75
2022-09-28T02:17:54.736Z,3.90
2022-09-28T02:18:11.466Z,4.60
2022-09-28T02:18:29.256Z,4.63
2022-09-28T02:18:46.049Z,4.57
2022-09-28T02:19:05.277Z,4.60
2022-09-28T02:19:25.800Z,4.72
2022-09-28T02:19:42.788Z,4.53
2022-09-28T02:19:59.416Z,4.68
2022-09-28T02:20:17.255Z,4.88
2022-09-28T02:20:36.264Z,4.80
2022-09-28T02:20:55.822Z,3.92
2022-09-28T02:21:15.252Z,3.97
2022-09-28T02:21:34.128Z,3.50
2022-09-28T02:21:55.332Z,3.55
2022-09-28T02:22:23.122Z,4.18
2022-09-28T02:22:43.745Z,4.30
2022-09-28T02:23:01.892Z,3.88
2022-09-28T02:23:21.234Z,3.20
2022-09-28T02:23:39.876Z,3.45
2022-09-28T02:23:57.824Z,3.65
2022-09-28T02:24:21.264Z,4.55
2022-09-28T02:24:39.668Z,4.15
2022-09-28T02:25:00.402Z,4.07
2022-09-28T02:25:22.968Z,4.03
2022-09-28T02:25:40.315Z,4.10
2022-09-28T02:26:01.216Z,4.10
2022-09-28T02:26:20.522Z,3.47
2022-09-28T02:26:39.930Z,3.55
2022-09-28T02:26:59.439Z,3.67
2022-09-28T02:27:28.674Z,3.42
2022-09-28T02:27:52.187Z,3.78
2022-09-28T02:28:10.443Z,3.67
2022-09-28T02:28:27.060Z,3.72
2022-09-28T02:28:43.575Z,3.42
2022-09-28T02:29:00.141Z,3.60
2022-09-28T02:29:18.100Z,4.00
2022-09-28T02:29:34.706Z,4.00
2022-09-28T02:29:51.216Z,3.88
2022-09-28T02:30:08.430Z,3.83
2022-09-28T02:30:25.039Z,3.30
2022-09-28T02:30:43.424Z,3.33
2022-09-28T02:31:00.599Z,3.83
2022-09-28T02:31:17.129Z,4.18
2022-09-28T02:31:34.043Z,4.07
2022-09-28T02:31:51.548Z,4.18
2022-09-28T02:32:08.322Z,3.60
2022-09-28T02:32:27.180Z,2.95
2022-09-28T02:32:46.672Z,3.58
2022-09-28T02:33:05.521Z,3.90
2022-09-28T02:33:24.507Z,4.05
2022-09-28T02:33:43.177Z,4.28
2022-09-28T02:33:59.850Z,4.03
2022-09-28T02:34:16.431Z,4.22
2022-09-28T02:34:33.323Z,4.07
2022-09-28T02:34:50.787Z,4.05
2022-09-28T02:35:08.520Z,4.03
2022-09-28T02:35:25.240Z,4.35
2022-09-28T02:35:42.373Z,4.18
2022-09-28T02:35:59.905Z,3.97
2022-09-28T02:36:18.752Z,3.75
2022-09-28T02:36:35.808Z,3.80
2022-09-28T02:36:52.438Z,4.15
2022-09-28T02:37:08.962Z,4.50
2022-09-28T02:37:25.549Z,4.20
2022-09-28T02:37:42.229Z,4.32
2022-09-28T02:37:59.727Z,4.55
2022-09-28T02:38:16.267Z,4.40
2022-09-28T02:38:33.044Z,4.30
2022-09-28T02:38:49.529Z,4.45
2022-09-28T02:39:06.653Z,4.20
2022-09-28T02:39:23.272Z,4.00
2022-09-28T02:39:40.755Z,4.07
2022-09-28T02:39:57.270Z,3.58
2022-09-28T02:40:15.251Z,3.53
2022-09-28T02:40:34.179Z,3.97
2022-09-28T02:41:03.749Z,4.24
2022-09-28T02:41:26.516Z,3.78
2022-09-28T02:41:51.866Z,4.03
2022-09-28T02:42:14.819Z,4.70
2022-09-28T02:42:36.477Z,4.25
2022-09-28T02:42:57.667Z,4.70
2022-09-28T02:43:16.032Z,4.82
2022-09-28T02:43:36.897Z,4.63
2022-09-28T02:43:58.163Z,4.75
2022-09-28T02:44:22.751Z,4.50
2022-09-28T02:44:45.293Z,4.50
2022-09-28T02:45:09.143Z,4.40
2022-09-28T02:45:34.541Z,4.63
2022-09-28T02:45:56.314Z,4.32
2022-09-28T02:46:19.909Z,4.40
2022-09-28T02:46:44.388Z,4.25
2022-09-28T02:47:15.911Z,4.50
2022-09-28T02:47:40.154Z,4.20
2022-09-28T02:48:04.897Z,4.57
2022-09-28T02:48:42.636Z,4.40
2022-09-28T02:49:24.350Z,4.40
2022-09-28T02:49:48.505Z,4.00
2022-09-28T02:50:11.018Z,4.20
2022-09-28T02:50:35.367Z,3.90
2022-09-28T02:50:58.451Z,4.15
2022-09-28T02:51:20.445Z,4.45
2022-09-28T02:51:41.552Z,4.05
2022-09-28T02:52:13.668Z,4.25
2022-09-28T02:52:40.817Z,4.90
2022-09-28T02:53:12.247Z,4.55
2022-09-28T02:53:42.011Z,4.22
2022-09-28T02:54:19.328Z,4.50
2022-09-28T02:54:53.531Z,3.72
2022-09-28T02:55:19.751Z,4.50
2022-09-28T02:55:43.845Z,4.20
2022-09-28T02:56:11.116Z,4.25
2022-09-28T02:56:36.287Z,4.03
2022-09-28T02:57:00.172Z,3.67
2022-09-28T02:57:24.877Z,4.13
2022-09-28T02:57:48.324Z,4.32
2022-09-28T02:58:17.033Z,4.30
2022-09-28T02:58:36.340Z,3.97
2022-09-28T02:58:56.013Z,4.35
2022-09-28T02:59:18.462Z,4.57
2022-09-28T02:59:46.340Z,4.50
2022-09-28T03:00:06.356Z,4.00
2022-09-28T03:00:23.618Z,3.67
2022-09-28T03:00:43.919Z,4.00
2022-09-28T03:01:04.383Z,4.13
2022-09-28T03:01:26.987Z,4.95
2022-09-28T03:01:51.775Z,4.13
2022-09-28T03:02:12.805Z,4.05
2022-09-28T03:02:31.594Z,4.44
2022-09-28T03:02:53.017Z,5.18
2022-09-28T03:03:13.659Z,4.60
2022-09-28T03:03:35.277Z,4.88
2022-09-28T03:03:55.403Z,5.68
2022-09-28T03:04:18.046Z,4.78
2022-09-28T03:04:37.726Z,4.50
2022-09-28T03:05:10.711Z,5.48
2022-09-28T03:05:31.812Z,4.75
2022-09-28T03:05:53.206Z,4.07
2022-09-28T03:06:12.149Z,4.40
2022-09-28T03:06:40.888Z,4.30
2022-09-28T03:07:01.765Z,4.35
2022-09-28T03:07:22.893Z,4.45
2022-09-28T03:07:41.597Z,4.32
2022-09-28T03:07:59.706Z,5.10
2022-09-28T03:08:20.164Z,5.10
2022-09-28T03:08:40.326Z,4.82
2022-09-28T03:09:01.209Z,4.90
2022-09-28T03:09:23.131Z,5.20
2022-09-28T03:09:42.415Z,5.88
2022-09-28T03:10:01.554Z,5.57
2022-09-28T03:10:24.278Z,5.03
2022-09-28T03:10:43.270Z,5.18
2022-09-28T03:11:01.061Z,4.85
2022-09-28T03:11:19.449Z,4.80
2022-09-28T03:11:42.895Z,4.30
2022-09-28T03:12:02.088Z,4.32
2022-09-28T03:12:20.782Z,3.85
2022-09-28T03:12:37.851Z,4.25
2022-09-28T03:12:56.778Z,4.40
2022-09-28T03:13:14.757Z,4.20
2022-09-28T03:13:31.800Z,4.55
2022-09-28T03:13:49.426Z,5.22
2022-09-28T03:14:06.947Z,5.55
2022-09-28T03:14:32.318Z,5.63
2022-09-28T03:15:06.342Z,5.18
2022-09-28T03:15:24.256Z,4.53
2022-09-28T03:15:45.261Z,4.60
2022-09-28T03:16:08.235Z,3.75
2022-09-28T03:16:27.399Z,3.90
2022-09-28T03:16:44.304Z,4.20
2022-09-28T03:17:00.920Z,4.32
2022-09-28T03:17:20.311Z,4.63
2022-09-28T03:17:37.073Z,4.80
2022-09-28T03:17:54.644Z,4.93
2022-09-28T03:18:11.242Z,4.75
2022-09-28T03:18:27.769Z,4.75
2022-09-28T03:18:44.903Z,4.85
2022-09-28T03:19:01.449Z,4.93
2022-09-28T03:19:21.068Z,4.78
2022-09-28T03:19:38.624Z,4.30
2022-09-28T03:19:55.161Z,4.65
2022-09-28T03:20:11.728Z,4.47
2022-09-28T03:20:29.388Z,3.97
2022-09-28T03:20:47.208Z,4.15
2022-09-28T03:21:04.480Z,4.30
2022-09-28T03:21:22.062Z,4.28
2022-09-28T03:21:38.546Z,4.10
2022-09-28T03:21:55.653Z,3.85
2022-09-28T03:22:12.162Z,3.92
2022-09-28T03:22:28.654Z,4.28
2022-09-28T03:23:00.243Z,4.55
2022-09-28T03:23:25.273Z,4.53
2022-09-28T03:23:42.470Z,4.90
2022-09-28T03:23:59.241Z,4.72
2022-09-28T03:24:16.698Z,4.95
2022-09-28T03:24:33.180Z,5.03
2022-09-28T03:24:49.697Z,4.95
2022-09-28T03:25:06.997Z,4.78
2022-09-28T03:25:24.873Z,4.22
2022-09-28T03:25:42.350Z,4.32
2022-09-28T03:25:59.469Z,5.20
2022-09-28T03:26:16.776Z,5.07
2022-09-28T03:26:33.378Z,4.53
2022-09-28T03:26:49.989Z,4.80
2022-09-28T03:27:07.526Z,4.60
2022-09-28T03:27:24.048Z,4.55
2022-09-28T03:27:40.816Z,4.75
2022-09-28T03:27:59.068Z,4.88
2022-09-28T03:28:17.166Z,4.60
2022-09-28T03:28:36.114Z,4.47
2022-09-28T03:28:53.661Z,4.78
2022-09-28T03:29:13.378Z,4.90
2022-09-28T03:29:32.885Z,4.85
2022-09-28T03:29:53.283Z,4.80
2022-09-28T03:30:10.782Z,4.72
2022-09-28T03:30:29.606Z,4.65
2022-09-28T03:30:46.092Z,4.38
2022-09-28T03:31:02.887Z,4.97
2022-09-28T03:31:19.618Z,5.35
2022-09-28T03:31:36.403Z,4.75
2022-09-28T03:31:54.134Z,4.47
2022-09-28T03:32:10.987Z,4.40
2022-09-28T03:32:27.556Z,4.72
2022-09-28T03:32:44.225Z,4.68
2022-09-28T03:33:02.428Z,4.30
2022-09-28T03:33:21.360Z,4.25
2022-09-28T03:33:38.926Z,4.38
2022-09-28T03:33:55.735Z,3.67
2022-09-28T03:34:12.292Z,3.92
2022-09-28T03:34:28.791Z,4.00
2022-09-28T03:34:45.273Z,4.18
2022-09-28T03:35:02.003Z,4.45
2022-09-28T03:35:19.554Z,4.50
2022-09-28T03:35:36.046Z,4.60
2022-09-28T03:35:53.331Z,4.88
2022-09-28T03:36:10.887Z,4.93
2022-09-28T03:36:27.981Z,4.55
2022-09-28T03:36:44.554Z,4.22
2022-09-28T03:37:01.401Z,4.57
2022-09-28T03:37:18.007Z,4.53
2022-09-28T03:37:34.895Z,4.70
2022-09-28T03:37:55.106Z,4.63
2022-09-28T03:38:11.833Z,4.50
2022-09-28T03:38:28.361Z,4.10
2022-09-28T03:38:44.999Z,4.03
2022-09-28T03:39:02.503Z,4.63
2022-09-28T03:39:19.062Z,4.45
2022-09-28T03:39:35.571Z,4.60
2022-09-28T03:39:52.105Z,4.75
2022-09-28T03:40:09.054Z,5.07
2022-09-28T03:40:25.887Z,4.57
2022-09-28T03:40:43.602Z,4.65
2022-09-28T03:41:00.416Z,4.40
2022-09-28T03:41:22.007Z,4.57
2022-09-28T03:41:39.570Z,4.32
2022-09-28T03:41:56.185Z,3.90
2022-09-28T03:42:12.804Z,4.38
2022-09-28T03:42:35.499Z,4.53
2022-09-28T03:42:53.951Z,5.25
2022-09-28T03:43:11.813Z,5.40
2022-09-28T03:43:29.853Z,5.50
2022-09-28T03:43:48.567Z,5.00
2022-09-28T03:44:06.135Z,4.74
2022-09-28T03:44:23.440Z,4.80
2022-09-28T03:44:40.090Z,4.78
2022-09-28T03:44:56.869Z,4.47
2022-09-28T03:45:13.399Z,4.55
2022-09-28T03:45:30.138Z,4.80
2022-09-28T03:45:52.223Z,4.32
2022-09-28T03:46:08.856Z,4.80
2022-09-28T03:46:30.606Z,5.10
2022-09-28T03:46:52.571Z,5.18
2022-09-28T03:47:10.093Z,5.35
2022-09-28T03:47:26.584Z,5.28
2022-09-28T03:47:45.229Z,5.22
2022-09-28T03:48:01.833Z,5.03
2022-09-28T03:48:25.020Z,5.05
2022-09-28T03:48:43.292Z,5.50
2022-09-28T03:49:01.649Z,5.15
2022-09-28T03:49:18.825Z,5.40
2022-09-28T03:49:35.337Z,5.32
2022-09-28T03:49:51.886Z,6.05
2022-09-28T03:50:08.897Z,6.32
2022-09-28T03:50:25.527Z,6.05
2022-09-28T03:50:43.072Z,5.43
2022-09-28T03:51:00.645Z,5.00
2022-09-28T03:51:17.473Z,5.80
2022-09-28T03:51:34.058Z,6.40
2022-09-28T03:51:51.535Z,6.18
2022-09-28T03:52:08.029Z,5.32
2022-09-28T03:52:24.545Z,4.72
2022-09-28T03:52:41.040Z,4.50
2022-09-28T03:53:02.194Z,4.63
2022-09-28T03:53:18.696Z,4.97
2022-09-28T03:53:36.634Z,5.32
2022-09-28T03:53:53.240Z,5.88
2022-09-28T03:54:10.655Z,5.90
2022-09-28T03:54:27.173Z,5.32
2022-09-28T03:54:48.324Z,5.97
2022-09-28T03:55:07.209Z,6.28
2022-09-28T03:55:24.466Z,6.70
2022-09-28T03:55:40.949Z,7.13
2022-09-28T03:56:02.063Z,6.70
2022-09-28T03:56:18.982Z,6.50
2022-09-28T03:56:36.633Z,6.15
2022-09-28T03:56:53.139Z,6.53
2022-09-28T03:57:10.135Z,6.25
2022-09-28T03:57:26.649Z,6.25
2022-09-28T03:57:43.224Z,6.65
2022-09-28T03:57:59.804Z,5.93
2022-09-28T03:58:18.684Z,5.40
2022-09-28T03:58:35.249Z,5.28
2022-09-28T03:58:51.957Z,5.05
2022-09-28T03:59:08.494Z,5.25
2022-09-28T03:59:27.268Z,5.85
2022-09-28T03:59:43.755Z,5.45
2022-09-28T04:00:00.515Z,5.00
2022-09-28T04:00:18.340Z,5.30
2022-09-28T04:00:34.986Z,5.32
2022-09-28T04:00:52.602Z,5.18
2022-09-28T04:01:16.532Z,5.22
2022-09-28T04:01:34.767Z,6.65
2022-09-28T04:01:51.739Z,6.40
2022-09-28T04:02:09.362Z,6.20
2022-09-28T04:02:25.890Z,6.32
2022-09-28T04:02:42.445Z,6.70
2022-09-28T04:02:58.972Z,6.50
2022-09-28T04:03:15.617Z,6.10
2022-09-28T04:03:32.229Z,6.75
2022-09-28T04:03:53.937Z,6.85
2022-09-28T04:04:11.422Z,5.78
2022-09-28T04:04:27.911Z,5.60
2022-09-28T04:04:44.419Z,7.07
2022-09-28T04:05:01.017Z,6.90
2022-09-28T04:05:18.548Z,5.55
2022-09-28T04:05:35.157Z,5.38
2022-09-28T04:05:52.423Z,5.55
2022-09-28T04:06:09.209Z,6.22
2022-09-28T04:06:26.946Z,6.30
2022-09-28T04:06:43.746Z,6.40
2022-09-28T04:07:00.397Z,5.72
2022-09-28T04:07:16.966Z,5.60
2022-09-28T04:07:33.658Z,5.35
2022-09-28T04:07:50.416Z,5.68
2022-09-28T04:08:06.917Z,6.18
2022-09-28T04:08:24.435Z,5.53
2022-09-28T04:08:41.041Z,5.25
2022-09-28T04:08:58.500Z,5.63
2022-09-28T04:09:16.171Z,6.07
2022-09-28T04:09:34.497Z,6.30
2022-09-28T04:09:51.229Z,6.07
2022-09-28T04:10:08.459Z,5.97
2022-09-28T04:10:25.443Z,5.65
2022-09-28T04:10:43.206Z,5.75
2022-09-28T04:11:00.361Z,5.78
2022-09-28T04:11:18.335Z,5.90
2022-09-28T04:11:53.150Z,6.38
2022-09-28T04:12:12.069Z,5.85
2022-09-28T04:12:28.656Z,5.63
2022-09-28T04:12:46.784Z,5.63
2022-09-28T04:13:04.480Z,6.00
2022-09-28T04:13:22.393Z,5.68
2022-09-28T04:13:39.106Z,5.68
2022-09-28T04:13:59.617Z,5.75
2022-09-28T04:14:16.135Z,6.00
2022-09-28T04:14:32.687Z,6.15
2022-09-28T04:14:49.189Z,5.63
2022-09-28T04:15:06.260Z,5.70